createdAt,value
2022-11-06T00:00:58.080Z,23.90
2022-11-06T00:03:26.853Z,23.70
2022-11-06T00:06:12.337Z,20.73
2022-11-06T00:08:42.151Z,20.00
2022-11-06T00:11:13.024Z,22.67
2022-11-06T00:14:06.694Z,20.27
2022-11-06T00:16:35.418Z,20.93
2022-11-06T00:19:04.216Z,22.17
2022-11-06T00:21:32.885Z,22.77
2022-11-06T00:24:02.489Z,21.60
2022-11-06T00:26:33.310Z,22.00
2022-11-06T00:29:02.595Z,21.53
2022-11-06T00:31:32.411Z,21.20
2022-11-06T00:34:50.058Z,22.13
2022-11-06T00:37:18.274Z,21.97
2022-11-06T00:39:46.516Z,22.07
2022-11-06T00:42:16.097Z,22.10
2022-11-06T00:44:44.346Z,21.03
2022-11-06T00:47:13.030Z,22.07
2022-11-06T00:49:41.289Z,21.23
2022-11-06T00:52:09.540Z,22.27
2022-11-06T00:54:37.846Z,21.80
2022-11-06T00:57:06.994Z,22.17
2022-11-06T00:59:36.619Z,19.93
2022-11-06T01:02:05.004Z,20.70
2022-11-06T01:04:33.364Z,20.90
2022-11-06T01:07:01.666Z,21.17
2022-11-06T01:09:30.068Z,21.00
2022-11-06T01:12:16.124Z,21.77
2022-11-06T01:14:45.978Z,21.20
2022-11-06T01:17:14.754Z,20.77
2022-11-06T01:19:43.080Z,21.60
2022-11-06T01:22:36.521Z,21.50
2022-11-06T01:25:05.240Z,21.67
2022-11-06T01:27:33.532Z,20.83
2022-11-06T01:30:03.372Z,21.07
2022-11-06T01:32:31.641Z,20.50
2022-11-06T01:34:59.892Z,20.60
2022-11-06T01:37:28.104Z,20.97
2022-11-06T01:39:56.413Z,21.77
2022-11-06T01:42:24.825Z,20.47
2022-11-06T01:45:32.399Z,20.37
2022-11-06T01:48:01.228Z,19.20
2022-11-06T01:50:29.564Z,20.57
2022-11-06T01:53:00.833Z,20.50
2022-11-06T01:55:31.483Z,20.53
2022-11-06T01:58:02.643Z,20.80
2022-11-06T02:00:32.716Z,20.97
2022-11-06T02:03:01.849Z,20.57
2022-11-06T02:05:30.677Z,20.07
2022-11-06T02:08:00.159Z,20.87
2022-11-06T02:10:28.897Z,19.17
2022-11-06T02:13:16.618Z,21.20
2022-11-06T02:15:49.783Z,21.67
2022-11-06T02:18:51.702Z,22.33
2022-11-06T02:21:37.888Z,21.30
2022-11-06T02:24:31.404Z,21.53
2022-11-06T02:30:16.249Z,20.43
2022-11-06T02:32:49.894Z,19.70
2022-11-06T02:35:24.168Z,19.43
2022-11-06T02:37:55.921Z,20.63
2022-11-06T02:40:29.683Z,20.63
2022-11-06T02:43:02.559Z,20.97
2022-11-06T02:45:33.059Z,19.63
2022-11-06T02:48:04.020Z,19.53
2022-11-06T02:50:36.392Z,20.57
2022-11-06T02:53:08.110Z,18.17
2022-11-06T02:55:40.278Z,18.47
2022-11-06T02:58:15.488Z,19.73
2022-11-06T03:00:50.030Z,19.53
2022-11-06T03:03:22.922Z,19.60
2022-11-06T03:05:57.747Z,18.70
2022-11-06T03:08:31.871Z,18.50
2022-11-06T03:11:26.345Z,18.67
2022-11-06T03:13:59.699Z,18.30
2022-11-06T03:16:39.276Z,17.93
2022-11-06T03:19:12.389Z,19.57
2022-11-06T03:21:53.906Z,17.37
2022-11-06T03:24:31.371Z,17.60
2022-11-06T03:27:04.311Z,18.33
2022-11-06T03:29:40.431Z,14.70
2022-11-06T03:32:16.453Z,13.20
2022-11-06T03:34:51.877Z,17.40
2022-11-06T03:37:25.727Z,16.37
2022-11-06T03:39:56.585Z,17.07
2022-11-06T03:42:27.874Z,16.67
2022-11-06T03:45:01.550Z,17.13
2022-11-06T03:47:34.232Z,15.63
2022-11-06T03:50:07.202Z,14.77
2022-11-06T03:52:42.494Z,14.17
2022-11-06T03:55:16.212Z,13.90
2022-11-06T03:57:50.296Z,13.40
2022-11-06T04:00:20.954Z,13.87
2022-11-06T04:02:53.042Z,14.03
2022-11-06T04:05:26.345Z,13.87
2022-11-06T04:08:14.926Z,14.13
2022-11-06T04:14:02.192Z,12.23
2022-11-06T04:16:35.821Z,12.87
2022-11-06T04:19:04.302Z,13.80
2022-11-06T04:21:44.369Z,12.63
2022-11-06T04:24:41.674Z,13.07
2022-11-06T04:27:23.364Z,13.10
2022-11-06T04:30:03.575Z,12.30
2022-11-06T04:33:00.062Z,12.03
2022-11-06T04:35:38.297Z,12.27
2022-11-06T04:38:14.024Z,12.23
2022-11-06T04:40:51.791Z,13.23
2022-11-06T04:43:26.342Z,11.90
2022-11-06T04:45:57.870Z,10.67
2022-11-06T04:48:28.238Z,11.43
2022-11-06T04:51:00.859Z,10.33
2022-11-06T04:53:31.826Z,11.00
2022-11-06T04:56:07.991Z,9.83
2022-11-06T04:58:36.221Z,10.70
2022-11-06T05:01:04.479Z,10.90
2022-11-06T05:03:34.125Z,11.80
2022-11-06T05:06:03.431Z,11.23
2022-11-06T05:08:57.676Z,11.40
2022-11-06T05:11:26.124Z,11.00
2022-11-06T05:13:54.735Z,10.27
2022-11-06T05:16:23.006Z,11.43
2022-11-06T05:18:52.593Z,10.83
2022-11-06T05:21:38.271Z,11.03
2022-11-06T05:24:07.690Z,10.63
2022-11-06T05:26:35.932Z,11.93
2022-11-06T05:29:28.956Z,11.07
2022-11-06T05:31:57.212Z,11.57
2022-11-06T05:34:26.920Z,10.23
2022-11-06T05:36:55.119Z,11.30
2022-11-06T05:39:23.309Z,11.70
2022-11-06T05:41:51.600Z,11.47
2022-11-06T05:44:19.821Z,12.03
2022-11-06T05:46:49.639Z,13.43
2022-11-06T05:49:18.913Z,12.43
2022-11-06T05:51:48.827Z,12.03
2022-11-06T05:54:17.070Z,11.90
2022-11-06T05:56:45.342Z,10.90
2022-11-06T05:59:13.880Z,13.43
2022-11-06T06:01:42.364Z,13.03
2022-11-06T06:04:10.691Z,13.87
2022-11-06T06:06:39.462Z,12.27
2022-11-06T06:09:09.069Z,12.73
2022-11-06T06:11:37.479Z,12.77
2022-11-06T06:14:05.783Z,12.40
2022-11-06T06:16:34.085Z,13.23
2022-11-06T06:19:02.367Z,12.97
2022-11-06T06:21:30.671Z,12.77
2022-11-06T06:23:59.051Z,14.37
2022-11-06T06:26:28.763Z,14.63
2022-11-06T06:28:57.025Z,14.97
2022-11-06T06:31:25.514Z,14.83
2022-11-06T06:33:53.773Z,14.73
2022-11-06T06:36:22.095Z,14.50
2022-11-06T06:38:50.289Z,15.40
2022-11-06T06:41:18.617Z,16.27
2022-11-06T06:43:50.869Z,16.13
2022-11-06T06:46:19.335Z,16.43
2022-11-06T06:48:47.707Z,16.80
2022-11-06T06:51:21.053Z,14.83
2022-11-06T06:53:52.032Z,15.53
2022-11-06T06:56:20.284Z,16.63
2022-11-06T06:58:50.099Z,16.07
2022-11-06T07:01:18.357Z,15.13
2022-11-06T07:03:46.604Z,15.30
2022-11-06T07:06:14.846Z,16.37
2022-11-06T07:08:43.036Z,14.63
2022-11-06T07:11:12.433Z,13.90
2022-11-06T07:13:40.646Z,14.63
2022-11-06T07:16:12.219Z,15.20
2022-11-06T07:18:41.303Z,14.87
2022-11-06T07:21:11.871Z,14.73
2022-11-06T07:23:40.533Z,14.20
2022-11-06T07:26:09.108Z,13.97
2022-11-06T07:28:37.474Z,13.73
2022-11-06T07:31:07.294Z,14.30
2022-11-06T07:33:37.417Z,15.00
2022-11-06T07:36:06.842Z,14.83
2022-11-06T07:38:35.718Z,14.63
2022-11-06T07:41:05.328Z,14.40
2022-11-06T07:43:33.965Z,14.67
2022-11-06T07:46:03.616Z,15.47
2022-11-06T07:48:57.913Z,15.27
2022-11-06T07:51:26.187Z,15.33
2022-11-06T07:53:54.526Z,15.27
2022-11-06T07:56:22.707Z,14.97
2022-11-06T07:58:50.938Z,15.67
2022-11-06T08:01:19.673Z,15.00
2022-11-06T08:03:47.990Z,16.87
2022-11-06T08:06:17.545Z,16.93
2022-11-06T08:08:45.714Z,15.13
2022-11-06T08:11:14.896Z,17.53
2022-11-06T08:13:44.135Z,16.83
2022-11-06T08:16:13.980Z,17.17
2022-11-06T08:18:42.693Z,17.13
2022-11-06T08:21:10.955Z,16.83
2022-11-06T08:23:40.531Z,17.73
2022-11-06T08:26:08.790Z,17.03
2022-11-06T08:28:37.034Z,16.30
2022-11-06T08:31:06.221Z,16.77
2022-11-06T08:33:34.664Z,16.43
2022-11-06T08:36:03.838Z,17.33
2022-11-06T08:38:32.075Z,17.87
2022-11-06T08:41:05.913Z,15.53
2022-11-06T08:43:34.111Z,15.83
2022-11-06T08:46:02.464Z,15.57
2022-11-06T08:48:32.996Z,16.60
2022-11-06T08:51:01.471Z,17.20
2022-11-06T08:53:29.741Z,17.20
2022-11-06T08:55:57.964Z,17.10
2022-11-06T08:58:27.572Z,16.53
2022-11-06T09:00:55.807Z,16.20
2022-11-06T09:03:24.068Z,15.97
2022-11-06T09:05:52.270Z,16.07
2022-11-06T09:08:20.482Z,16.70
2022-11-06T09:10:48.745Z,17.13
2022-11-06T09:13:17.237Z,17.57
2022-11-06T09:16:15.766Z,18.17
2022-11-06T09:18:44.792Z,18.37
2022-11-06T09:21:13.056Z,19.33
2022-11-06T09:23:41.297Z,20.53
2022-11-06T09:26:09.540Z,21.17
2022-11-06T09:29:14.616Z,21.60
2022-11-06T09:31:44.226Z,19.23
2022-11-06T09:34:12.453Z,19.00
2022-11-06T09:36:40.723Z,18.80
2022-11-06T09:39:08.992Z,18.30
2022-11-06T09:41:52.794Z,15.87
2022-11-06T09:44:33.944Z,16.00
2022-11-06T09:47:08.552Z,15.47
2022-11-06T09:49:42.992Z,16.03
2022-11-06T09:52:15.231Z,15.63
2022-11-06T09:54:53.357Z,16.13
2022-11-06T09:57:30.659Z,14.03
2022-11-06T09:59:59.631Z,14.03
2022-11-06T10:02:35.005Z,13.83
2022-11-06T10:05:09.843Z,14.23
2022-11-06T10:07:41.563Z,14.67
2022-11-06T10:10:15.805Z,14.37
2022-11-06T10:13:01.563Z,14.77
2022-11-06T10:15:34.780Z,13.73
2022-11-06T10:18:13.717Z,14.50
2022-11-06T10:20:49.434Z,14.13
2022-11-06T10:23:22.225Z,14.90
2022-11-06T10:26:08.463Z,14.10
2022-11-06T10:28:53.432Z,15.03
2022-11-06T10:31:30.142Z,14.57
2022-11-06T10:34:03.372Z,14.07
2022-11-06T10:36:37.775Z,14.77
2022-11-06T10:39:13.152Z,15.30
2022-11-06T10:41:41.597Z,15.37
2022-11-06T10:44:18.644Z,15.73
2022-11-06T10:46:53.302Z,15.23
2022-11-06T10:49:31.759Z,12.73
2022-11-06T10:52:16.549Z,11.90
2022-11-06T10:55:02.145Z,12.27
2022-11-06T10:57:37.709Z,12.07
2022-11-06T11:00:06.740Z,12.50
2022-11-06T11:02:38.431Z,12.87
2022-11-06T11:05:16.094Z,12.27
2022-11-06T11:07:47.573Z,12.17
2022-11-06T11:10:28.407Z,12.97
2022-11-06T11:13:00.805Z,14.60
2022-11-06T11:15:33.927Z,13.60
2022-11-06T11:18:16.251Z,12.47
2022-11-06T11:20:47.319Z,10.00
2022-11-06T11:23:18.823Z,8.80
2022-11-06T11:26:22.881Z,8.93
2022-11-06T11:28:54.459Z,7.63
2022-11-06T11:31:30.146Z,7.53
2022-11-06T11:34:01.724Z,8.23
2022-11-06T11:36:50.058Z,8.87
2022-11-06T11:39:19.832Z,8.87
2022-11-06T11:41:48.171Z,9.97
2022-11-06T11:44:18.083Z,10.07
2022-11-06T11:46:51.402Z,11.97
2022-11-06T11:49:31.128Z,11.50
2022-11-06T11:52:02.752Z,11.70
2022-11-06T11:54:34.614Z,11.13
2022-11-06T11:57:07.198Z,11.37
2022-11-06T11:59:42.689Z,11.03
2022-11-06T12:02:23.611Z,11.33
2022-11-06T12:04:58.315Z,11.47
2022-11-06T12:07:30.920Z,11.27
2022-11-06T12:10:00.939Z,10.40
2022-11-06T12:12:33.106Z,10.40
2022-11-06T12:15:20.241Z,9.53
2022-11-06T12:17:53.412Z,8.80
2022-11-06T12:20:26.532Z,8.20
2022-11-06T12:22:59.303Z,8.30
2022-11-06T12:25:32.113Z,8.17
2022-11-06T12:28:03.074Z,8.27
2022-11-06T12:31:01.537Z,8.30
2022-11-06T12:34:04.419Z,7.40
2022-11-06T12:36:22.060Z,7.37
2022-11-06T12:38:56.584Z,6.97
2022-11-06T12:41:28.575Z,6.90
2022-11-06T12:43:58.432Z,7.10
2022-11-06T12:46:39.157Z,8.07
2022-11-06T12:49:49.334Z,7.60
2022-11-06T12:52:31.500Z,6.87
2022-11-06T12:55:19.092Z,6.87
2022-11-06T12:57:58.075Z,7.27
2022-11-06T13:00:33.323Z,6.70
2022-11-06T13:03:20.569Z,7.10
2022-11-06T13:05:56.629Z,6.23
2022-11-06T13:08:36.677Z,6.53
2022-11-06T13:11:18.536Z,6.50
2022-11-06T13:14:03.226Z,7.10
2022-11-06T13:16:38.365Z,6.73
2022-11-06T13:19:11.870Z,6.63
2022-11-06T13:22:05.142Z,6.87
2022-11-06T13:24:37.883Z,6.83
2022-11-06T13:27:27.480Z,6.10
2022-11-06T13:30:00.531Z,6.10
2022-11-06T13:32:32.821Z,6.13
2022-11-06T13:35:03.198Z,6.63
2022-11-06T13:37:39.814Z,6.30
2022-11-06T13:40:22.828Z,6.80
2022-11-06T13:42:58.795Z,6.70
2022-11-06T13:45:27.612Z,6.40
2022-11-06T13:48:10.763Z,6.80
2022-11-06T13:50:48.872Z,6.43
2022-11-06T13:53:26.999Z,6.20
2022-11-06T13:56:05.336Z,7.20
2022-11-06T13:59:03.090Z,8.53
2022-11-06T14:01:42.804Z,7.60
2022-11-06T14:04:35.997Z,7.50
2022-11-06T14:07:05.624Z,7.50
2022-11-06T14:09:37.187Z,8.00
2022-11-06T14:12:14.013Z,7.70
2022-11-06T14:14:44.909Z,8.10
2022-11-06T14:17:25.176Z,6.97
2022-11-06T14:20:06.581Z,7.13
2022-11-06T14:22:36.785Z,7.57
2022-11-06T14:25:38.324Z,8.00
2022-11-06T14:28:07.646Z,7.73
2022-11-06T14:31:11.467Z,6.77
2022-11-06T14:33:59.522Z,6.47
2022-11-06T14:36:38.487Z,6.40
2022-11-06T14:39:14.857Z,6.53
2022-11-06T14:42:00.982Z,6.63
2022-11-06T14:44:48.457Z,6.13
2022-11-06T14:47:35.136Z,5.60
2022-11-06T14:50:28.549Z,9.87
2022-11-06T14:53:23.958Z,7.93
2022-11-06T14:55:59.433Z,6.83
2022-11-06T14:58:41.879Z,7.03
2022-11-06T15:01:17.935Z,7.00
2022-11-06T15:03:52.268Z,9.30
2022-11-06T15:06:40.017Z,8.20
2022-11-06T15:09:14.108Z,7.90
2022-11-06T15:12:01.926Z,8.40
2022-11-06T15:14:58.339Z,7.27
2022-11-06T15:17:34.425Z,7.90
2022-11-06T15:20:30.756Z,7.23
2022-11-06T15:23:14.154Z,7.73
2022-11-06T15:25:58.041Z,6.33
2022-11-06T15:28:30.375Z,6.50
2022-11-06T15:31:27.759Z,6.23
2022-11-06T15:34:01.095Z,6.27
2022-11-06T15:36:38.552Z,5.97
2022-11-06T15:39:39.281Z,6.00
2022-11-06T15:42:09.741Z,5.07
2022-11-06T15:44:42.098Z,5.03
2022-11-06T15:47:21.807Z,5.80
2022-11-06T15:50:15.257Z,5.20
2022-11-06T15:52:56.661Z,9.53
2022-11-06T15:55:31.030Z,9.63
2022-11-06T15:58:08.028Z,6.37
2022-11-06T16:00:38.055Z,6.07
2022-11-06T16:03:16.023Z,5.17
2022-11-06T16:05:45.523Z,10.43
2022-11-06T16:08:16.889Z,21.20
2022-11-06T16:10:48.222Z,15.53
2022-11-06T16:13:34.832Z,11.53
2022-11-06T16:16:36.320Z,11.07
2022-11-06T16:19:06.784Z,12.90
2022-11-06T16:21:37.415Z,14.40
2022-11-06T16:24:12.734Z,13.20
2022-11-06T16:26:47.219Z,17.13
2022-11-06T16:29:20.558Z,24.57
2022-11-06T16:31:49.590Z,23.93
2022-11-06T16:34:22.348Z,20.47
2022-11-06T16:36:54.129Z,15.27
2022-11-06T16:39:49.220Z,14.80
2022-11-06T16:42:29.670Z,13.93
2022-11-06T16:45:17.313Z,12.07
2022-11-06T16:48:24.369Z,13.10
2022-11-06T16:50:55.882Z,12.83
2022-11-06T16:53:26.135Z,13.23
2022-11-06T16:55:57.035Z,12.70
2022-11-06T16:58:25.808Z,13.97
2022-11-06T17:00:59.548Z,14.50
2022-11-06T17:03:30.904Z,13.70
2022-11-06T17:06:00.624Z,15.47
2022-11-06T17:08:32.623Z,14.30
2022-11-06T17:11:15.237Z,14.40
2022-11-06T17:13:45.360Z,12.20
2022-11-06T17:16:16.447Z,11.40
2022-11-06T17:18:46.221Z,10.87
2022-11-06T17:21:17.421Z,10.60
2022-11-06T17:23:46.784Z,9.57
2022-11-06T17:26:21.519Z,10.10
2022-11-06T17:28:49.760Z,16.57
2022-11-06T17:31:21.036Z,18.97
2022-11-06T17:33:49.904Z,16.37
2022-11-06T17:36:21.256Z,14.37
2022-11-06T17:38:50.017Z,17.70
2022-11-06T17:41:29.992Z,22.80
2022-11-06T17:43:59.456Z,29.13
2022-11-06T17:46:29.127Z,26.30
2022-11-06T17:48:58.399Z,47.80
2022-11-06T17:51:45.421Z,31.10
2022-11-06T17:54:13.741Z,17.83
2022-11-06T17:56:42.053Z,16.07
2022-11-06T17:59:10.845Z,21.03
2022-11-06T18:01:39.661Z,17.23
2022-11-06T18:04:08.235Z,14.87
2022-11-06T18:06:38.192Z,18.50
2022-11-06T18:09:08.560Z,17.60
2022-11-06T18:11:36.814Z,18.00
2022-11-06T18:14:05.057Z,18.03
2022-11-06T18:16:39.693Z,16.93
2022-11-06T18:19:12.189Z,14.93
2022-11-06T18:21:41.840Z,16.80
2022-11-06T18:24:10.338Z,15.67
2022-11-06T18:26:38.848Z,16.30
2022-11-06T18:29:07.743Z,16.03
2022-11-06T18:31:36.705Z,16.83
2022-11-06T18:34:05.858Z,18.27
2022-11-06T18:36:35.104Z,20.27
2022-11-06T18:39:05.062Z,22.07
2022-11-06T18:41:34.461Z,20.97
2022-11-06T18:44:03.443Z,20.03
2022-11-06T18:46:33.500Z,19.83
2022-11-06T18:49:26.899Z,21.00
2022-11-06T18:51:55.223Z,24.93
2022-11-06T18:54:24.836Z,41.17
2022-11-06T18:56:53.074Z,60.37
2022-11-06T18:59:24.317Z,35.63
2022-11-06T19:01:52.666Z,21.90
2022-11-06T19:04:21.909Z,30.80
2022-11-06T19:06:50.883Z,18.03
2022-11-06T19:09:19.062Z,15.53
2022-11-06T19:11:50.886Z,15.07
2022-11-06T19:14:19.310Z,16.87
2022-11-06T19:16:47.532Z,23.10
2022-11-06T19:19:25.032Z,26.07
2022-11-06T19:21:54.166Z,24.40
2022-11-06T19:24:22.624Z,16.23
2022-11-06T19:26:52.452Z,18.33
2022-11-06T19:29:20.729Z,17.03
2022-11-06T19:31:48.941Z,15.87
2022-11-06T19:34:17.752Z,16.90
2022-11-06T19:36:45.955Z,19.03
2022-11-06T19:39:14.283Z,20.97
2022-11-06T19:41:42.734Z,19.43
2022-11-06T19:44:12.522Z,19.40
2022-11-06T19:46:40.879Z,16.60
2022-11-06T19:49:10.720Z,18.27
2022-11-06T19:51:40.993Z,17.77
2022-11-06T19:54:11.153Z,20.63
2022-11-06T19:57:28.266Z,16.83
2022-11-06T19:59:29.106Z,16.30
2022-11-06T20:01:57.509Z,17.97
2022-11-06T20:04:25.891Z,17.97
2022-11-06T20:06:54.179Z,18.13
2022-11-06T20:09:22.423Z,18.30
2022-11-06T20:11:52.554Z,20.57
2022-11-06T20:14:21.874Z,19.23
2022-11-06T20:16:51.737Z,16.77
2022-11-06T20:19:20.168Z,17.77
2022-11-06T20:21:48.362Z,19.43
2022-11-06T20:24:16.587Z,17.40
2022-11-06T20:26:44.891Z,18.37
2022-11-06T20:29:13.128Z,17.90
2022-11-06T20:31:42.975Z,18.07
2022-11-06T20:34:12.604Z,17.93
2022-11-06T20:36:40.847Z,20.13
2022-11-06T20:39:09.625Z,19.63
2022-11-06T20:41:37.934Z,19.80
2022-11-06T20:44:06.138Z,18.23
2022-11-06T20:46:34.339Z,17.17
2022-11-06T20:49:02.541Z,20.13
2022-11-06T20:51:43.029Z,20.87
2022-11-06T20:54:21.477Z,16.53
2022-11-06T20:56:50.831Z,15.77
2022-11-06T20:59:19.235Z,13.77
2022-11-06T21:01:48.200Z,15.33
2022-11-06T21:04:16.577Z,17.47
2022-11-06T21:06:46.317Z,16.90
2022-11-06T21:09:40.190Z,14.80
2022-11-06T21:12:09.098Z,15.47
2022-11-06T21:14:37.328Z,15.40
2022-11-06T21:17:05.702Z,14.70
2022-11-06T21:19:37.182Z,14.67
2022-11-06T21:22:06.788Z,21.23
2022-11-06T21:24:35.469Z,19.67
2022-11-06T21:27:03.796Z,16.73
2022-11-06T21:29:32.180Z,15.33
2022-11-06T21:32:00.519Z,15.23
2022-11-06T21:34:28.841Z,14.07
2022-11-06T21:37:02.135Z,13.87
2022-11-06T21:39:36.296Z,14.30
2022-11-06T21:42:05.121Z,13.90
2022-11-06T21:44:33.427Z,15.13
2022-11-06T21:47:01.677Z,14.67
2022-11-06T21:49:29.902Z,14.27
2022-11-06T21:52:18.112Z,14.17
2022-11-06T21:55:04.991Z,14.17
2022-11-06T21:57:33.216Z,14.07
2022-11-06T22:00:01.421Z,15.20
2022-11-06T22:02:29.750Z,13.97
2022-11-06T22:04:58.062Z,13.83
2022-11-06T22:07:26.300Z,14.30
2022-11-06T22:09:55.856Z,13.83
2022-11-06T22:12:24.047Z,14.20
2022-11-06T22:14:52.263Z,14.43
2022-11-06T22:17:20.513Z,13.77
2022-11-06T22:19:48.739Z,13.93
2022-11-06T22:22:16.927Z,20.67
2022-11-06T22:24:45.152Z,23.70
2022-11-06T22:27:14.709Z,17.07
2022-11-06T22:29:42.953Z,16.33
2022-11-06T22:32:11.200Z,17.03
2022-11-06T22:34:39.443Z,15.90
2022-11-06T22:37:07.724Z,15.07
2022-11-06T22:39:36.023Z,15.73
2022-11-06T22:42:04.455Z,14.77
2022-11-06T22:44:35.208Z,14.97
2022-11-06T22:47:05.104Z,14.73
2022-11-06T22:49:33.329Z,16.90
2022-11-06T22:52:01.514Z,15.37
2022-11-06T22:54:29.765Z,14.93
2022-11-06T22:56:58.087Z,15.70
2022-11-06T22:59:26.376Z,15.53
2022-11-06T23:01:56.015Z,16.67
2022-11-06T23:04:24.277Z,15.30
2022-11-06T23:06:52.554Z,15.53
2022-11-06T23:09:35.791Z,15.77
2022-11-06T23:12:04.244Z,16.37
2022-11-06T23:14:32.474Z,16.50
2022-11-06T23:17:02.942Z,16.97
2022-11-06T23:19:32.465Z,16.93
2022-11-06T23:22:38.055Z,16.10
2022-11-06T23:25:07.181Z,16.43
2022-11-06T23:27:36.117Z,16.63
2022-11-06T23:30:04.731Z,16.87
2022-11-06T23:32:37.817Z,16.30
2022-11-06T23:35:11.658Z,16.33
2022-11-06T23:37:42.318Z,17.20
2022-11-06T23:40:12.127Z,16.97
2022-11-06T23:42:40.410Z,15.33
2022-11-06T23:45:28.563Z,16.13
2022-11-06T23:47:58.211Z,16.00
2022-11-06T23:50:26.422Z,17.03
2022-11-06T23:52:54.660Z,16.57
2022-11-06T23:55:22.888Z,15.83
2022-11-06T23:58:16.194Z,17.87
